createdAt,value
2023-02-09T00:01:50.904Z,17.97
2023-02-09T00:04:19.097Z,19.17
2023-02-09T00:06:47.247Z,18.00
2023-02-09T00:09:15.627Z,20.07
2023-02-09T00:12:02.794Z,19.07
2023-02-09T00:14:33.063Z,18.30
2023-02-09T00:17:02.565Z,21.13
2023-02-09T00:19:32.968Z,18.20
2023-02-09T00:22:01.779Z,21.10
2023-02-09T00:24:29.986Z,17.33
2023-02-09T00:26:59.535Z,21.67
2023-02-09T00:29:27.693Z,19.80
2023-02-09T00:31:55.906Z,18.27
2023-02-09T00:34:24.092Z,17.83
2023-02-09T00:36:52.229Z,19.47
2023-02-09T00:39:20.416Z,18.40
2023-02-09T00:42:06.138Z,16.97
2023-02-09T00:44:37.800Z,18.40
2023-02-09T00:47:07.708Z,19.40
2023-02-09T00:49:40.114Z,18.17
2023-02-09T00:52:13.339Z,18.87
2023-02-09T00:54:44.764Z,17.27
2023-02-09T00:57:13.049Z,17.97
2023-02-09T00:59:51.258Z,19.20
2023-02-09T01:02:19.502Z,18.37
2023-02-09T01:04:47.724Z,18.47
2023-02-09T01:07:18.990Z,18.73
2023-02-09T01:09:47.334Z,18.77
2023-02-09T01:12:15.820Z,17.37
2023-02-09T01:14:45.415Z,19.23
2023-02-09T01:17:13.693Z,18.80
2023-02-09T01:19:42.013Z,18.47
2023-02-09T01:22:23.411Z,17.10
2023-02-09T01:24:55.655Z,19.53
2023-02-09T01:27:27.418Z,17.73
2023-02-09T01:29:58.670Z,18.73
2023-02-09T01:32:28.190Z,18.73
2023-02-09T01:35:03.023Z,18.67
2023-02-09T01:40:16.739Z,19.73
2023-02-09T01:42:48.800Z,19.07
2023-02-09T01:45:31.013Z,19.10
2023-02-09T01:48:03.544Z,18.13
2023-02-09T01:50:51.985Z,18.10
2023-02-09T01:53:33.309Z,17.77
2023-02-09T01:56:11.428Z,18.63
2023-02-09T01:58:44.858Z,18.20
2023-02-09T02:01:21.914Z,20.17
2023-02-09T02:03:50.279Z,18.20
2023-02-09T02:06:20.307Z,18.57
2023-02-09T02:08:56.955Z,18.87
2023-02-09T02:11:32.182Z,19.20
2023-02-09T02:14:01.874Z,20.23
2023-02-09T02:17:06.267Z,19.07
2023-02-09T02:20:04.154Z,19.30
2023-02-09T02:23:06.733Z,20.00
2023-02-09T02:26:21.293Z,18.83
2023-02-09T02:29:20.253Z,20.73
2023-02-09T02:32:11.717Z,19.97
2023-02-09T02:34:46.753Z,18.97
2023-02-09T02:37:33.549Z,18.83
2023-02-09T02:40:14.595Z,19.37
2023-02-09T02:42:50.288Z,19.50
2023-02-09T02:45:36.657Z,19.20
2023-02-09T02:48:19.788Z,17.40
2023-02-09T02:50:56.514Z,18.93
2023-02-09T02:53:31.433Z,18.33
2023-02-09T02:56:06.288Z,19.70
2023-02-09T02:58:40.030Z,18.43
2023-02-09T03:01:12.764Z,20.20
2023-02-09T03:03:45.603Z,19.80
2023-02-09T03:06:22.684Z,19.27
2023-02-09T03:08:57.829Z,19.30
2023-02-09T03:11:33.826Z,18.77
2023-02-09T03:14:27.013Z,20.23
2023-02-09T03:17:11.185Z,18.67
2023-02-09T03:19:48.102Z,19.90
2023-02-09T03:22:28.796Z,20.70
2023-02-09T03:25:04.069Z,21.73
2023-02-09T03:27:36.926Z,19.80
2023-02-09T03:30:12.405Z,20.00
2023-02-09T03:32:46.691Z,19.53
2023-02-09T03:35:24.455Z,20.00
2023-02-09T03:37:55.258Z,20.40
2023-02-09T03:40:25.962Z,20.30
2023-02-09T03:43:04.115Z,20.67
2023-02-09T03:48:18.779Z,20.33
2023-02-09T03:50:50.714Z,19.70
2023-02-09T03:53:22.390Z,19.80
2023-02-09T03:55:56.318Z,19.33
2023-02-09T03:58:24.698Z,19.90
2023-02-09T04:00:52.904Z,20.17
2023-02-09T04:03:30.567Z,18.70
2023-02-09T04:06:01.471Z,19.30
2023-02-09T04:08:30.598Z,17.40
2023-02-09T04:11:00.933Z,19.07
2023-02-09T04:13:30.389Z,18.40
2023-02-09T04:16:02.320Z,18.83
2023-02-09T04:18:32.685Z,18.60
2023-02-09T04:21:03.505Z,18.33
2023-02-09T04:23:34.310Z,17.97
2023-02-09T04:26:03.403Z,18.00
2023-02-09T04:28:31.865Z,19.33
2023-02-09T04:31:00.102Z,18.30
2023-02-09T04:33:29.028Z,19.27
2023-02-09T04:35:58.786Z,20.70
2023-02-09T04:38:42.051Z,20.50
2023-02-09T04:41:13.524Z,19.80
2023-02-09T04:43:42.578Z,19.53
2023-02-09T04:46:13.989Z,20.23
2023-02-09T04:51:28.075Z,19.27
2023-02-09T04:53:57.850Z,19.90
2023-02-09T04:56:28.736Z,18.70
2023-02-09T04:59:14.187Z,19.13
2023-02-09T05:01:42.339Z,20.33
2023-02-09T05:04:14.085Z,19.90
2023-02-09T05:06:42.204Z,21.33
2023-02-09T05:09:11.892Z,21.57
2023-02-09T05:11:42.359Z,21.80
2023-02-09T05:14:13.730Z,21.40
2023-02-09T05:16:47.989Z,19.30
2023-02-09T05:19:19.287Z,19.87
2023-02-09T05:21:47.742Z,19.53
2023-02-09T05:24:18.948Z,21.73
2023-02-09T05:26:48.508Z,20.50
2023-02-09T05:29:17.775Z,21.20
2023-02-09T05:31:55.999Z,21.23
2023-02-09T05:34:26.462Z,20.03
2023-02-09T05:36:58.033Z,18.90
2023-02-09T05:39:27.546Z,20.73
2023-02-09T05:42:12.200Z,20.00
2023-02-09T05:44:41.779Z,19.80
2023-02-09T05:47:12.469Z,20.50
2023-02-09T05:49:46.476Z,20.57
2023-02-09T05:52:17.165Z,20.60
2023-02-09T05:55:01.290Z,20.43
2023-02-09T05:57:29.500Z,20.47
2023-02-09T05:59:57.833Z,22.23
2023-02-09T06:02:27.224Z,19.90
2023-02-09T06:04:58.311Z,21.13
2023-02-09T06:07:32.195Z,21.20
2023-02-09T06:10:08.139Z,50.07
2023-02-09T06:12:40.178Z,28.23
2023-02-09T06:15:13.195Z,72.10
2023-02-09T06:17:41.618Z,37.50
2023-02-09T06:20:13.155Z,23.50
2023-02-09T06:22:41.536Z,43.37
2023-02-09T06:25:16.462Z,27.20
2023-02-09T06:27:46.908Z,41.43
2023-02-09T06:30:23.009Z,27.70
2023-02-09T06:32:53.806Z,26.77
2023-02-09T06:35:22.459Z,28.20
2023-02-09T06:37:56.712Z,26.40
2023-02-09T06:40:33.549Z,20.47
2023-02-09T06:43:04.287Z,20.60
2023-02-09T06:45:35.686Z,32.37
2023-02-09T06:48:13.315Z,22.10
2023-02-09T06:50:45.652Z,21.70
2023-02-09T06:53:16.239Z,23.03
2023-02-09T06:55:54.856Z,23.60
2023-02-09T06:58:33.943Z,24.10
2023-02-09T07:01:07.714Z,40.57
2023-02-09T07:03:39.578Z,40.47
2023-02-09T07:06:12.349Z,36.57
2023-02-09T07:09:03.320Z,58.00
2023-02-09T07:12:02.947Z,28.23
2023-02-09T07:14:49.595Z,28.77
2023-02-09T07:17:19.499Z,20.43
2023-02-09T07:19:50.752Z,21.20
2023-02-09T07:25:07.230Z,22.60
2023-02-09T07:27:50.536Z,19.90
2023-02-09T07:30:28.783Z,21.10
2023-02-09T07:32:57.253Z,24.33
2023-02-09T07:35:30.612Z,22.20
2023-02-09T07:38:05.238Z,20.80
2023-02-09T07:40:35.372Z,21.60
2023-02-09T07:43:06.136Z,20.20
2023-02-09T07:45:45.827Z,20.97
2023-02-09T07:48:17.268Z,20.30
2023-02-09T07:50:53.350Z,20.63
2023-02-09T07:53:24.714Z,20.23
2023-02-09T07:55:52.978Z,19.37
2023-02-09T07:58:27.700Z,19.60
2023-02-09T08:00:59.862Z,20.40
2023-02-09T08:03:28.467Z,20.90
2023-02-09T08:06:01.711Z,21.00
2023-02-09T08:08:30.271Z,23.00
2023-02-09T08:11:00.623Z,21.67
2023-02-09T08:13:33.726Z,22.13
2023-02-09T08:16:05.854Z,20.73
2023-02-09T08:18:37.728Z,21.47
2023-02-09T08:21:07.523Z,20.57
2023-02-09T08:23:39.023Z,19.47
2023-02-09T08:26:19.711Z,19.43
2023-02-09T08:28:49.417Z,19.43
2023-02-09T08:31:19.947Z,19.70
2023-02-09T08:33:50.217Z,19.80
2023-02-09T08:36:19.918Z,24.23
2023-02-09T08:38:49.203Z,24.40
2023-02-09T08:41:18.628Z,21.40
2023-02-09T08:43:51.624Z,21.90
2023-02-09T08:46:20.569Z,19.27
2023-02-09T08:48:48.878Z,18.90
2023-02-09T08:51:18.006Z,19.33
2023-02-09T08:53:52.462Z,17.97
2023-02-09T08:56:21.694Z,19.47
2023-02-09T08:58:51.674Z,16.53
2023-02-09T09:01:19.876Z,17.20
2023-02-09T09:03:48.174Z,17.83
2023-02-09T09:06:16.524Z,18.87
2023-02-09T09:08:44.757Z,17.77
2023-02-09T09:11:14.833Z,18.50
2023-02-09T09:13:43.400Z,18.77
2023-02-09T09:16:17.612Z,18.93
2023-02-09T09:18:48.986Z,17.60
2023-02-09T09:21:19.021Z,18.60
2023-02-09T09:23:48.136Z,18.37
2023-02-09T09:26:17.064Z,19.57
2023-02-09T09:28:46.195Z,17.80
2023-02-09T09:31:17.683Z,18.73
2023-02-09T09:33:46.851Z,18.53
2023-02-09T09:36:15.997Z,17.03
2023-02-09T09:38:44.430Z,18.47
2023-02-09T09:41:21.919Z,18.83
2023-02-09T09:43:50.496Z,18.10
2023-02-09T09:46:22.175Z,17.90
2023-02-09T09:48:53.565Z,18.53
2023-02-09T09:51:29.225Z,17.00
2023-02-09T09:54:00.094Z,18.37
2023-02-09T09:56:31.158Z,18.53
2023-02-09T09:59:01.872Z,18.70
2023-02-09T10:01:34.544Z,18.03
2023-02-09T10:04:07.907Z,19.80
2023-02-09T10:06:36.244Z,18.57
2023-02-09T10:09:07.068Z,20.60
2023-02-09T10:11:40.588Z,19.53
2023-02-09T10:14:11.209Z,20.37
2023-02-09T10:16:41.238Z,19.63
2023-02-09T10:19:20.762Z,23.50
2023-02-09T10:21:49.672Z,20.60
2023-02-09T10:24:23.383Z,20.83
2023-02-09T10:27:08.295Z,20.00
2023-02-09T10:29:37.545Z,22.10
2023-02-09T10:32:15.627Z,23.53
2023-02-09T10:34:47.775Z,21.43
2023-02-09T10:37:24.592Z,22.93
2023-02-09T10:40:02.497Z,22.93
2023-02-09T10:42:33.760Z,22.20
2023-02-09T10:45:09.307Z,24.27
2023-02-09T10:47:38.985Z,25.60
2023-02-09T10:50:19.619Z,27.03
2023-02-09T10:53:02.380Z,28.73
2023-02-09T10:55:36.100Z,26.50
2023-02-09T10:58:18.298Z,28.20
2023-02-09T11:00:51.770Z,27.47
2023-02-09T11:03:25.421Z,26.87
2023-02-09T11:06:02.576Z,29.80
2023-02-09T11:08:40.776Z,28.50
2023-02-09T11:11:19.499Z,30.20
2023-02-09T11:13:47.842Z,28.17
2023-02-09T11:16:32.593Z,27.67
2023-02-09T11:19:11.499Z,26.80
2023-02-09T11:21:56.284Z,26.67
2023-02-09T11:24:37.878Z,27.70
2023-02-09T11:27:13.836Z,28.90
2023-02-09T11:29:47.346Z,27.27
2023-02-09T11:32:21.533Z,27.73
2023-02-09T11:35:05.603Z,29.80
2023-02-09T11:37:45.613Z,26.93
2023-02-09T11:40:28.614Z,26.23
2023-02-09T11:43:07.571Z,27.83
2023-02-09T11:45:44.351Z,28.57
2023-02-09T11:48:15.562Z,26.77
2023-02-09T11:50:55.206Z,25.60
2023-02-09T11:53:30.833Z,25.87
2023-02-09T11:56:01.373Z,26.90
2023-02-09T11:58:45.438Z,25.43
2023-02-09T12:01:25.531Z,23.67
2023-02-09T12:04:01.800Z,25.57
2023-02-09T12:06:36.395Z,30.30
2023-02-09T12:09:15.203Z,37.23
2023-02-09T12:11:56.959Z,23.73
2023-02-09T12:14:44.318Z,22.73
2023-02-09T12:17:17.423Z,22.63
2023-02-09T12:19:57.330Z,23.73
2023-02-09T12:22:59.561Z,23.63
2023-02-09T12:25:57.452Z,23.63
2023-02-09T12:28:48.899Z,25.87
2023-02-09T12:31:26.623Z,25.93
2023-02-09T12:34:26.908Z,23.23
2023-02-09T12:37:28.287Z,25.43
2023-02-09T12:40:23.937Z,27.97
2023-02-09T12:43:13.351Z,22.57
2023-02-09T12:45:43.169Z,24.23
2023-02-09T12:48:19.372Z,20.67
2023-02-09T12:50:53.981Z,23.90
2023-02-09T12:53:34.912Z,22.80
2023-02-09T12:56:24.368Z,24.40
2023-02-09T12:59:07.157Z,24.20
2023-02-09T13:02:25.291Z,22.30
2023-02-09T13:05:02.905Z,24.90
2023-02-09T13:07:50.227Z,26.73
2023-02-09T13:10:26.331Z,24.30
2023-02-09T13:12:59.736Z,33.00
2023-02-09T13:15:32.942Z,23.43
2023-02-09T13:18:18.756Z,24.40
2023-02-09T13:21:02.983Z,22.30
2023-02-09T13:23:35.264Z,36.73
2023-02-09T13:26:17.108Z,23.63
2023-02-09T13:28:46.663Z,25.63
2023-02-09T13:31:26.323Z,26.17
2023-02-09T13:33:59.655Z,23.73
2023-02-09T13:36:36.956Z,27.20
2023-02-09T13:39:08.749Z,26.73
2023-02-09T13:41:38.970Z,24.43
2023-02-09T13:44:25.772Z,24.20
2023-02-09T13:46:59.025Z,23.90
2023-02-09T13:49:29.462Z,53.10
2023-02-09T13:52:10.732Z,58.47
2023-02-09T13:54:39.638Z,24.47
2023-02-09T13:57:24.675Z,25.90
2023-02-09T13:59:54.730Z,24.10
2023-02-09T14:02:28.072Z,31.43
2023-02-09T14:05:00.362Z,41.50
2023-02-09T14:07:34.104Z,25.33
2023-02-09T14:10:06.648Z,25.13
2023-02-09T14:12:56.726Z,25.33
2023-02-09T14:15:51.796Z,30.47
2023-02-09T14:18:35.186Z,25.43
2023-02-09T14:21:21.586Z,27.30
2023-02-09T14:23:50.836Z,24.43
2023-02-09T14:26:24.253Z,26.43
2023-02-09T14:28:55.733Z,24.13
2023-02-09T14:31:27.126Z,28.87
2023-02-09T14:33:57.377Z,31.03
2023-02-09T14:36:30.929Z,22.70
2023-02-09T14:39:12.992Z,21.80
2023-02-09T14:41:41.388Z,24.47
2023-02-09T14:44:20.775Z,22.83
2023-02-09T14:46:54.415Z,23.07
2023-02-09T14:49:23.616Z,23.70
2023-02-09T14:51:58.555Z,26.77
2023-02-09T14:54:29.494Z,23.87
2023-02-09T14:57:00.893Z,23.57
2023-02-09T14:59:29.321Z,22.03
2023-02-09T15:01:58.985Z,22.73
2023-02-09T15:04:27.298Z,22.17
2023-02-09T15:07:02.871Z,22.40
2023-02-09T15:09:36.514Z,24.33
2023-02-09T15:12:08.594Z,23.17
2023-02-09T15:14:44.831Z,24.00
2023-02-09T15:17:18.144Z,30.73
2023-02-09T15:19:47.938Z,24.23
2023-02-09T15:22:17.209Z,22.57
2023-02-09T15:24:46.167Z,24.47
2023-02-09T15:27:29.486Z,55.97
2023-02-09T15:30:01.058Z,32.47
2023-02-09T15:32:31.960Z,28.27
2023-02-09T15:35:00.100Z,22.47
2023-02-09T15:37:33.382Z,22.43
2023-02-09T15:40:11.401Z,24.57
2023-02-09T15:42:57.085Z,24.60
2023-02-09T15:45:44.612Z,25.83
2023-02-09T15:48:15.024Z,26.10
2023-02-09T15:50:46.845Z,24.27
2023-02-09T15:53:18.688Z,21.33
2023-02-09T15:55:47.300Z,18.30
2023-02-09T15:58:17.908Z,18.20
2023-02-09T16:00:48.817Z,19.90
2023-02-09T16:03:20.421Z,19.10
2023-02-09T16:05:50.994Z,20.90
2023-02-09T16:08:22.593Z,21.87
2023-02-09T16:10:50.781Z,20.77
2023-02-09T16:13:20.191Z,20.93
2023-02-09T16:15:51.665Z,19.93
2023-02-09T16:18:21.247Z,21.13
2023-02-09T16:20:54.247Z,20.63
2023-02-09T16:23:24.729Z,20.17
2023-02-09T16:25:54.457Z,19.20
2023-02-09T16:28:23.035Z,21.60
2023-02-09T16:30:53.905Z,20.00
2023-02-09T16:33:27.225Z,21.90
2023-02-09T16:35:57.957Z,26.23
2023-02-09T16:38:27.692Z,25.17
2023-02-09T16:41:22.390Z,23.07
2023-02-09T16:46:50.244Z,31.90
2023-02-09T16:49:31.237Z,24.40
2023-02-09T16:52:03.304Z,23.77
2023-02-09T16:54:36.615Z,24.30
2023-02-09T16:57:04.828Z,24.33
2023-02-09T16:59:32.966Z,26.40
2023-02-09T17:02:02.216Z,26.70
2023-02-09T17:04:31.794Z,22.80
2023-02-09T17:07:00.006Z,21.03
2023-02-09T17:09:28.287Z,21.57
2023-02-09T17:11:56.412Z,21.30
2023-02-09T17:14:24.586Z,25.60
2023-02-09T17:16:53.779Z,25.13
2023-02-09T17:19:22.588Z,25.13
2023-02-09T17:21:52.128Z,26.93
2023-02-09T17:24:20.238Z,29.97
2023-02-09T17:26:48.417Z,30.10
2023-02-09T17:29:20.214Z,32.33
2023-02-09T17:31:53.488Z,29.97
2023-02-09T17:34:27.106Z,28.97
2023-02-09T17:36:56.995Z,33.10
2023-02-09T17:39:25.303Z,29.23
2023-02-09T17:41:53.706Z,26.47
2023-02-09T17:44:39.650Z,28.90
2023-02-09T17:47:16.019Z,29.80
2023-02-09T17:49:44.192Z,32.83
2023-02-09T17:52:19.691Z,35.00
2023-02-09T17:54:49.431Z,33.87
2023-02-09T17:57:19.737Z,32.03
2023-02-09T17:59:47.966Z,28.73
2023-02-09T18:02:27.836Z,30.23
2023-02-09T18:04:58.213Z,28.40
2023-02-09T18:07:35.367Z,29.40
2023-02-09T18:10:04.053Z,27.57
2023-02-09T18:12:33.118Z,25.17
2023-02-09T18:15:01.311Z,31.60
2023-02-09T18:17:30.235Z,28.23
2023-02-09T18:19:58.404Z,28.90
2023-02-09T18:22:28.624Z,26.33
2023-02-09T18:25:00.208Z,28.77
2023-02-09T18:27:28.384Z,26.70
2023-02-09T18:29:56.453Z,37.07
2023-02-09T18:32:25.636Z,32.07
2023-02-09T18:34:53.854Z,29.93
2023-02-09T18:37:22.369Z,28.03
2023-02-09T18:39:51.844Z,25.57
2023-02-09T18:42:20.055Z,27.50
2023-02-09T18:44:48.193Z,29.60
2023-02-09T18:47:16.413Z,30.87
2023-02-09T18:49:44.544Z,30.23
2023-02-09T18:52:17.082Z,31.20
2023-02-09T18:54:45.448Z,31.60
2023-02-09T18:57:15.060Z,28.47
2023-02-09T18:59:47.420Z,38.27
2023-02-09T19:02:16.317Z,31.60
2023-02-09T19:04:44.821Z,35.53
2023-02-09T19:07:14.310Z,30.63
2023-02-09T19:09:45.901Z,25.43
2023-02-09T19:12:15.567Z,24.43
2023-02-09T19:14:46.831Z,26.37
2023-02-09T19:17:18.133Z,23.90
2023-02-09T19:19:46.849Z,26.27
2023-02-09T19:22:17.141Z,27.73
2023-02-09T19:24:45.909Z,27.90
2023-02-09T19:27:17.236Z,28.70
2023-02-09T19:29:46.551Z,29.27
2023-02-09T19:32:15.719Z,30.03
2023-02-09T19:34:46.020Z,32.70
2023-02-09T19:37:15.678Z,32.40
2023-02-09T19:39:52.554Z,27.77
2023-02-09T19:42:22.811Z,26.67
2023-02-09T19:44:51.069Z,27.47
2023-02-09T19:47:25.639Z,26.90
2023-02-09T19:49:54.179Z,30.90
2023-02-09T19:52:22.402Z,30.53
2023-02-09T19:54:51.051Z,32.53
2023-02-09T19:57:19.768Z,30.57
2023-02-09T19:59:49.972Z,26.67
2023-02-09T20:02:18.472Z,25.97
2023-02-09T20:04:46.736Z,29.30
2023-02-09T20:07:16.402Z,24.70
2023-02-09T20:09:44.722Z,26.43
2023-02-09T20:12:12.885Z,32.13
2023-02-09T20:14:41.140Z,26.07
2023-02-09T20:17:10.654Z,25.23
2023-02-09T20:19:39.274Z,28.27
2023-02-09T20:22:07.436Z,27.53
2023-02-09T20:24:35.627Z,28.93
2023-02-09T20:27:03.858Z,26.57
2023-02-09T20:29:32.152Z,26.40
2023-02-09T20:32:01.582Z,28.83
2023-02-09T20:34:31.183Z,27.00
2023-02-09T20:36:59.461Z,23.83
2023-02-09T20:39:27.691Z,24.53
2023-02-09T20:42:14.800Z,22.60
2023-02-09T20:45:00.637Z,22.30
2023-02-09T20:47:29.826Z,25.10
2023-02-09T20:50:01.015Z,23.67
2023-02-09T20:52:29.821Z,22.27
2023-02-09T20:54:58.123Z,25.50
2023-02-09T20:57:29.625Z,23.30
2023-02-09T20:59:57.910Z,21.80
2023-02-09T21:02:27.824Z,22.20
2023-02-09T21:04:59.816Z,29.80
2023-02-09T21:07:33.125Z,26.40
2023-02-09T21:12:45.948Z,22.07
2023-02-09T21:15:14.724Z,24.10
2023-02-09T21:17:47.693Z,24.70
2023-02-09T21:20:17.124Z,22.00
2023-02-09T21:22:46.835Z,21.37
2023-02-09T21:25:15.000Z,21.93
2023-02-09T21:27:43.216Z,23.27
2023-02-09T21:30:12.708Z,22.87
2023-02-09T21:32:40.903Z,23.07
2023-02-09T21:35:10.496Z,22.47
2023-02-09T21:37:39.356Z,22.60
2023-02-09T21:40:09.772Z,23.97
2023-02-09T21:42:41.104Z,25.40
2023-02-09T21:45:09.787Z,25.70
2023-02-09T21:47:39.651Z,24.77
2023-02-09T21:50:10.141Z,21.37
2023-02-09T21:52:38.323Z,21.17
2023-02-09T21:55:09.124Z,19.90
2023-02-09T21:57:38.299Z,19.40
2023-02-09T22:00:09.126Z,19.57
2023-02-09T22:02:37.361Z,18.93
2023-02-09T22:05:06.386Z,19.13
2023-02-09T22:07:35.920Z,19.70
2023-02-09T22:10:05.175Z,18.90
2023-02-09T22:12:36.470Z,19.70
2023-02-09T22:15:04.959Z,19.10
2023-02-09T22:17:33.387Z,22.23
2023-02-09T22:20:01.576Z,22.80
2023-02-09T22:22:29.960Z,18.90
2023-02-09T22:24:59.163Z,21.00
2023-02-09T22:27:27.411Z,19.37
2023-02-09T22:29:56.971Z,20.03
2023-02-09T22:32:25.224Z,20.20
2023-02-09T22:34:53.355Z,18.10
2023-02-09T22:37:21.515Z,18.10
2023-02-09T22:39:49.596Z,20.50
2023-02-09T22:42:17.763Z,20.53
2023-02-09T22:44:46.500Z,18.00
2023-02-09T22:47:16.036Z,18.90
2023-02-09T22:49:45.533Z,20.10
2023-02-09T22:52:13.786Z,18.00
2023-02-09T22:54:41.914Z,19.40
2023-02-09T22:57:10.037Z,18.33
2023-02-09T22:59:38.164Z,17.30
2023-02-09T23:02:06.817Z,17.50
2023-02-09T23:04:36.409Z,16.10
2023-02-09T23:07:05.113Z,16.50
2023-02-09T23:09:33.357Z,17.80
2023-02-09T23:12:01.615Z,16.40
2023-02-09T23:14:29.847Z,16.60
2023-02-09T23:16:59.036Z,17.50
2023-02-09T23:19:27.209Z,15.87
2023-02-09T23:21:56.743Z,16.30
2023-02-09T23:24:25.095Z,17.23
2023-02-09T23:26:53.476Z,16.50
2023-02-09T23:29:22.228Z,17.13
2023-02-09T23:31:50.698Z,16.23
2023-02-09T23:34:21.124Z,19.10
2023-02-09T23:36:49.599Z,15.70
2023-02-09T23:39:21.096Z,16.80
2023-02-09T23:41:49.580Z,16.10
2023-02-09T23:44:17.726Z,17.10
2023-02-09T23:46:46.102Z,16.60
2023-02-09T23:49:14.356Z,17.50
2023-02-09T23:51:42.523Z,15.80
2023-02-09T23:54:12.197Z,16.73
2023-02-09T23:56:41.853Z,17.20
2023-02-09T23:59:13.066Z,16.90
